createdAt,value
2019-02-06T00:01:06.712Z,102514.25
2019-02-06T00:03:09.077Z,102510.31
2019-02-06T00:05:14.521Z,102505.78
2019-02-06T00:07:13.854Z,102508.67
2019-02-06T00:09:16.372Z,102504.24
2019-02-06T00:11:17.745Z,102507.97
2019-02-06T00:13:19.129Z,102504.34
2019-02-06T00:15:20.959Z,102510.20
2019-02-06T00:17:22.433Z,102511.35
2019-02-06T00:19:23.937Z,102515.22
2019-02-06T00:21:25.628Z,102511.06
2019-02-06T00:23:27.415Z,102515.39
2019-02-06T00:25:28.801Z,102515.08
2019-02-06T00:27:30.308Z,102508.42
2019-02-06T00:29:31.689Z,102519.31
2019-02-06T00:31:33.471Z,102516.54
2019-02-06T00:33:35.298Z,102527.12
2019-02-06T00:35:36.689Z,102521.41
2019-02-06T00:37:38.065Z,102523.53
2019-02-06T00:39:39.461Z,102522.95
2019-02-06T00:41:40.841Z,102523.11
2019-02-06T00:43:42.248Z,102519.56
2019-02-06T00:45:43.640Z,102522.64
2019-02-06T00:47:45.017Z,102519.07
2019-02-06T00:49:46.431Z,102517.16
2019-02-06T00:51:47.796Z,102528.75
2019-02-06T00:53:49.465Z,102524.42
2019-02-06T00:55:50.839Z,102520.94
2019-02-06T00:57:52.293Z,102518.48
2019-02-06T00:59:53.700Z,102514.61
2019-02-06T01:01:55.184Z,102514.41
2019-02-06T01:03:56.765Z,102514.00
2019-02-06T01:05:58.690Z,102517.16
2019-02-06T01:08:00.153Z,102514.00
2019-02-06T01:10:01.515Z,102518.23
2019-02-06T01:12:03.548Z,102518.15
2019-02-06T01:14:05.310Z,102521.25
2019-02-06T01:16:06.785Z,102518.98
2019-02-06T01:18:08.215Z,102520.28
2019-02-06T01:20:17.112Z,102519.08
2019-02-06T01:22:18.552Z,102513.09
2019-02-06T01:24:20.013Z,102513.41
2019-02-06T01:26:21.380Z,102514.50
2019-02-06T01:28:22.812Z,102507.69
2019-02-06T01:30:26.184Z,102507.27
2019-02-06T01:32:28.117Z,102506.54
2019-02-06T01:34:29.547Z,102503.48
2019-02-06T01:36:30.961Z,102511.28
2019-02-06T01:38:32.500Z,102506.53
2019-02-06T01:40:34.263Z,102510.16
2019-02-06T01:42:35.790Z,102512.51
2019-02-06T01:44:37.176Z,102517.09
2019-02-06T01:46:38.552Z,102515.53
2019-02-06T01:48:40.594Z,102512.25
2019-02-06T01:50:41.978Z,102514.02
2019-02-06T01:52:43.359Z,102508.95
2019-02-06T01:54:44.836Z,102514.30
2019-02-06T01:56:46.409Z,102515.30
2019-02-06T01:58:47.797Z,102517.92
2019-02-06T02:00:49.412Z,102512.45
2019-02-06T02:02:50.998Z,102509.67
2019-02-06T02:04:52.379Z,102513.12
2019-02-06T02:06:53.776Z,102508.81
2019-02-06T02:08:57.110Z,102507.19
2019-02-06T02:10:58.599Z,102509.42
2019-02-06T02:13:00.231Z,102506.12
2019-02-06T02:15:01.717Z,102510.96
2019-02-06T02:17:03.095Z,102511.14
2019-02-06T02:19:04.641Z,102497.57
2019-02-06T02:21:06.032Z,102490.18
2019-02-06T02:23:07.520Z,102504.14
2019-02-06T02:25:09.354Z,102500.52
2019-02-06T02:27:10.792Z,102491.84
2019-02-06T02:29:12.181Z,102495.48
2019-02-06T02:31:14.058Z,102499.06
2019-02-06T02:33:15.650Z,102497.95
2019-02-06T02:35:17.120Z,102476.64
2019-02-06T02:37:18.620Z,102492.73
2019-02-06T02:39:19.989Z,102496.15
2019-02-06T02:41:21.363Z,102501.98
2019-02-06T02:43:22.766Z,102506.31
2019-02-06T02:45:24.143Z,102505.14
2019-02-06T02:47:25.758Z,102502.48
2019-02-06T02:49:27.324Z,102505.33
2019-02-06T02:51:28.831Z,102503.47
2019-02-06T02:53:30.206Z,102501.21
2019-02-06T02:55:31.658Z,102500.84
2019-02-06T02:57:33.032Z,102506.24
2019-02-06T02:59:34.415Z,102499.75
2019-02-06T03:01:40.613Z,102494.55
2019-02-06T03:03:43.906Z,102495.78
2019-02-06T03:05:45.494Z,102493.31
2019-02-06T03:07:47.030Z,102492.95
2019-02-06T03:09:48.405Z,102499.16
2019-02-06T03:11:49.799Z,102497.00
2019-02-06T03:13:51.250Z,102494.20
2019-02-06T03:15:52.621Z,102496.19
2019-02-06T03:17:54.014Z,102496.44
2019-02-06T03:19:55.453Z,102493.25
2019-02-06T03:21:56.913Z,102483.38
2019-02-06T03:23:58.264Z,102483.22
2019-02-06T03:25:59.819Z,102474.87
2019-02-06T03:28:01.205Z,102480.77
2019-02-06T03:30:08.348Z,102479.73
2019-02-06T03:32:10.395Z,102471.20
2019-02-06T03:34:11.832Z,102474.63
2019-02-06T03:36:13.207Z,102473.18
2019-02-06T03:38:14.634Z,102476.36
2019-02-06T03:40:17.392Z,102471.23
2019-02-06T03:42:18.812Z,102470.25
2019-02-06T03:44:20.190Z,102471.68
2019-02-06T03:46:21.572Z,102475.13
2019-02-06T03:48:23.245Z,102478.27
2019-02-06T03:50:24.696Z,102479.79
2019-02-06T03:52:26.067Z,102478.98
2019-02-06T03:54:27.529Z,102481.47
2019-02-06T03:56:28.892Z,102475.71
2019-02-06T03:58:30.225Z,102480.70
2019-02-06T04:00:31.644Z,102471.03
2019-02-06T04:02:33.026Z,102470.40
2019-02-06T04:04:34.462Z,102471.13
2019-02-06T04:06:35.830Z,102462.14
2019-02-06T04:08:37.317Z,102468.32
2019-02-06T04:10:38.722Z,102464.29
2019-02-06T04:12:40.200Z,102459.73
2019-02-06T04:14:41.550Z,102456.53
2019-02-06T04:16:42.976Z,102458.23
2019-02-06T04:18:44.344Z,102459.92
2019-02-06T04:20:45.706Z,102463.38
2019-02-06T04:22:47.613Z,102464.67
2019-02-06T04:24:51.588Z,102465.06
2019-02-06T04:26:52.287Z,102462.59
2019-02-06T04:28:53.936Z,102470.15
2019-02-06T04:30:55.354Z,102472.62
2019-02-06T04:32:56.820Z,102470.31
2019-02-06T04:34:58.408Z,102473.27
2019-02-06T04:37:06.811Z,102465.70
2019-02-06T04:39:06.127Z,102467.63
2019-02-06T04:41:07.526Z,102467.27
2019-02-06T04:43:08.898Z,102467.59
2019-02-06T04:45:14.171Z,102467.33
2019-02-06T04:47:15.872Z,102463.80
2019-02-06T04:49:17.645Z,102462.34
2019-02-06T04:51:19.003Z,102467.11
2019-02-06T04:53:20.413Z,102463.68
2019-02-06T04:55:21.932Z,102461.99
2019-02-06T04:57:23.631Z,102461.22
2019-02-06T04:59:25.023Z,102456.67
2019-02-06T05:01:26.388Z,102452.09
2019-02-06T05:03:27.760Z,102440.93
2019-02-06T05:05:29.170Z,102443.21
2019-02-06T05:07:30.584Z,102443.33
2019-02-06T05:09:31.944Z,102441.80
2019-02-06T05:11:33.518Z,102445.23
2019-02-06T05:13:34.933Z,102447.52
2019-02-06T05:15:36.321Z,102444.61
2019-02-06T05:17:37.786Z,102448.64
2019-02-06T05:19:42.055Z,102445.33
2019-02-06T05:21:43.483Z,102452.39
2019-02-06T05:23:44.939Z,102450.02
2019-02-06T05:25:46.323Z,102458.58
2019-02-06T05:27:47.745Z,102460.41
2019-02-06T05:29:49.168Z,102460.73
2019-02-06T05:31:50.849Z,102460.05
2019-02-06T05:33:52.216Z,102453.98
2019-02-06T05:35:53.686Z,102457.37
2019-02-06T05:37:55.150Z,102455.17
2019-02-06T05:39:57.332Z,102454.03
2019-02-06T05:41:58.847Z,102455.11
2019-02-06T05:44:00.228Z,102453.71
2019-02-06T05:46:01.707Z,102448.51
2019-02-06T05:48:03.715Z,102456.41
2019-02-06T05:50:10.267Z,102452.66
2019-02-06T05:52:11.702Z,102454.30
2019-02-06T05:54:13.082Z,102450.38
2019-02-06T05:56:14.443Z,102453.66
2019-02-06T05:58:15.878Z,102450.64
2019-02-06T06:00:27.527Z,102454.67
2019-02-06T06:02:28.888Z,102449.78
2019-02-06T06:04:30.290Z,102449.16
2019-02-06T06:06:32.057Z,102453.52
2019-02-06T06:08:33.485Z,102454.55
2019-02-06T06:10:34.898Z,102455.81
2019-02-06T06:12:36.280Z,102459.19
2019-02-06T06:14:37.874Z,102458.58
2019-02-06T06:16:39.265Z,102453.37
2019-02-06T06:18:40.648Z,102450.41
2019-02-06T06:20:42.023Z,102449.88
2019-02-06T06:22:44.028Z,102450.44
2019-02-06T06:24:45.494Z,102458.18
2019-02-06T06:26:46.964Z,102453.02
2019-02-06T06:28:48.354Z,102445.23
2019-02-06T06:30:50.152Z,102446.05
2019-02-06T06:32:51.604Z,102442.94
2019-02-06T06:34:52.981Z,102447.99
2019-02-06T06:36:56.816Z,102445.64
2019-02-06T06:38:57.722Z,102444.98
2019-02-06T06:40:59.109Z,102446.61
2019-02-06T06:43:00.486Z,102448.11
2019-02-06T06:45:03.164Z,102444.66
2019-02-06T06:47:04.569Z,102439.89
2019-02-06T06:49:05.937Z,102441.61
2019-02-06T06:51:07.343Z,102445.45
2019-02-06T06:53:08.698Z,102442.95
2019-02-06T06:55:13.320Z,102442.64
2019-02-06T06:57:15.177Z,102437.65
2019-02-06T06:59:16.591Z,102441.20
2019-02-06T07:01:18.094Z,102437.39
2019-02-06T07:03:19.502Z,102431.99
2019-02-06T07:05:21.289Z,102437.73
2019-02-06T07:07:22.789Z,102433.56
2019-02-06T07:09:24.149Z,102427.16
2019-02-06T07:11:25.521Z,102423.42
2019-02-06T07:13:26.958Z,102423.67
2019-02-06T07:15:31.569Z,102421.89
2019-02-06T07:17:32.937Z,102417.77
2019-02-06T07:19:34.351Z,102416.43
2019-02-06T07:21:35.795Z,102417.34
2019-02-06T07:23:37.179Z,102414.25
2019-02-06T07:25:38.584Z,102418.95
2019-02-06T07:27:39.937Z,102414.45
2019-02-06T07:29:41.375Z,102410.57
2019-02-06T07:31:43.160Z,102406.70
2019-02-06T07:33:44.508Z,102408.05
2019-02-06T07:35:45.945Z,102405.67
2019-02-06T07:37:47.315Z,102399.55
2019-02-06T07:39:49.168Z,102401.36
2019-02-06T07:41:50.550Z,102402.00
2019-02-06T07:43:52.146Z,102401.31
2019-02-06T07:45:53.522Z,102401.39
2019-02-06T07:47:55.394Z,102396.52
2019-02-06T07:49:56.875Z,102400.45
2019-02-06T07:51:58.243Z,102402.36
2019-02-06T07:53:59.616Z,102410.07
2019-02-06T07:56:01.076Z,102407.10
2019-02-06T07:58:02.580Z,102407.45
2019-02-06T08:00:06.395Z,102400.62
2019-02-06T08:02:07.978Z,102400.00
2019-02-06T08:04:09.353Z,102402.68
2019-02-06T08:06:10.728Z,102403.16
2019-02-06T08:08:12.125Z,102408.22
2019-02-06T08:10:27.912Z,102406.45
2019-02-06T08:12:29.281Z,102406.36
2019-02-06T08:14:30.658Z,102406.19
2019-02-06T08:16:32.026Z,102413.75
2019-02-06T08:18:33.394Z,102410.22
2019-02-06T08:20:34.900Z,102410.56
2019-02-06T08:22:36.289Z,102416.03
2019-02-06T08:24:37.634Z,102414.40
2019-02-06T08:26:39.017Z,102412.00
2019-02-06T08:28:40.417Z,102413.05
2019-02-06T08:30:41.794Z,102412.09
2019-02-06T08:32:43.174Z,102413.72
2019-02-06T08:34:44.546Z,102413.21
2019-02-06T08:36:45.917Z,102410.62
2019-02-06T08:38:49.258Z,102402.49
2019-02-06T08:40:50.579Z,102405.41
2019-02-06T08:42:52.121Z,102397.57
2019-02-06T08:44:53.665Z,102393.56
2019-02-06T08:46:55.041Z,102393.96
2019-02-06T08:48:56.406Z,102393.52
2019-02-06T08:50:57.792Z,102385.55
2019-02-06T08:52:59.176Z,102377.83
2019-02-06T08:55:00.557Z,102373.40
2019-02-06T08:57:01.915Z,102368.94
2019-02-06T08:59:03.466Z,102377.02
2019-02-06T09:01:05.244Z,102371.48
2019-02-06T09:03:08.514Z,102363.34
2019-02-06T09:05:10.169Z,102374.13
2019-02-06T09:07:11.673Z,102366.37
2019-02-06T09:09:13.123Z,102367.42
2019-02-06T09:11:14.572Z,102366.07
2019-02-06T09:13:15.965Z,102365.47
2019-02-06T09:15:17.449Z,102369.88
2019-02-06T09:17:18.847Z,102370.36
2019-02-06T09:19:20.205Z,102376.33
2019-02-06T09:21:21.582Z,102375.25
2019-02-06T09:23:23.359Z,102363.17
2019-02-06T09:25:27.367Z,102362.30
2019-02-06T09:27:28.766Z,102362.15
2019-02-06T09:29:30.149Z,102353.38
2019-02-06T09:31:31.739Z,102358.04
2019-02-06T09:33:33.128Z,102359.44
2019-02-06T09:35:34.514Z,102344.22
2019-02-06T09:37:35.904Z,102334.78
2019-02-06T09:39:37.399Z,102339.48
2019-02-06T09:41:38.827Z,102332.88
2019-02-06T09:43:40.330Z,102340.53
2019-02-06T09:45:41.728Z,102336.24
2019-02-06T09:47:43.301Z,102327.11
2019-02-06T09:49:44.694Z,102325.02
2019-02-06T09:51:46.083Z,102321.47
2019-02-06T09:53:47.437Z,102330.88
2019-02-06T09:55:48.791Z,102321.89
2019-02-06T09:57:50.281Z,102329.38
2019-02-06T09:59:51.633Z,102330.86
2019-02-06T10:01:52.985Z,102331.86
2019-02-06T10:03:54.369Z,102333.80
2019-02-06T10:05:55.744Z,102330.23
2019-02-06T10:07:57.233Z,102337.70
2019-02-06T10:09:58.657Z,102336.71
2019-02-06T10:12:00.074Z,102335.09
2019-02-06T10:14:01.441Z,102328.25
2019-02-06T10:16:02.890Z,102328.41
2019-02-06T10:18:05.204Z,102325.98
2019-02-06T10:20:16.631Z,102315.00
2019-02-06T10:22:18.037Z,102308.80
2019-02-06T10:24:19.413Z,102306.70
2019-02-06T10:26:20.809Z,102305.84
2019-02-06T10:28:24.200Z,102305.97
2019-02-06T10:30:29.790Z,102301.41
2019-02-06T10:32:31.431Z,102297.95
2019-02-06T10:34:32.781Z,102294.02
2019-02-06T10:36:34.251Z,102299.81
2019-02-06T10:38:35.592Z,102295.49
2019-02-06T10:40:37.535Z,102287.17
2019-02-06T10:42:39.131Z,102271.55
2019-02-06T10:44:40.470Z,102267.68
2019-02-06T10:46:41.852Z,102266.06
2019-02-06T10:48:43.852Z,102256.99
2019-02-06T10:50:47.531Z,102256.09
2019-02-06T10:52:49.014Z,102245.64
2019-02-06T10:54:50.391Z,102233.66
2019-02-06T10:56:51.720Z,102228.80
2019-02-06T10:58:53.064Z,102223.94
2019-02-06T11:00:55.038Z,102227.64
2019-02-06T11:02:56.475Z,102215.30
2019-02-06T11:04:57.845Z,102219.32
2019-02-06T11:06:59.186Z,102210.88
2019-02-06T11:09:00.542Z,102207.14
2019-02-06T11:11:01.907Z,102210.95
2019-02-06T11:13:04.756Z,102201.75
2019-02-06T11:15:09.896Z,102205.05
2019-02-06T11:17:11.273Z,102209.63
2019-02-06T11:19:12.609Z,102204.04
2019-02-06T11:21:13.952Z,102198.72
2019-02-06T11:23:15.371Z,102197.83
2019-02-06T11:25:17.297Z,102193.27
2019-02-06T11:27:18.644Z,102195.95
2019-02-06T11:29:20.014Z,102196.94
2019-02-06T11:31:21.359Z,102175.25
2019-02-06T11:33:22.735Z,102184.48
2019-02-06T11:35:24.104Z,102169.69
2019-02-06T11:37:25.557Z,102167.73
2019-02-06T11:39:26.902Z,102156.97
2019-02-06T11:41:28.271Z,102147.86
2019-02-06T11:43:32.006Z,102159.95
2019-02-06T11:45:34.603Z,102150.66
2019-02-06T11:47:36.094Z,102159.20
2019-02-06T11:49:39.673Z,102159.46
2019-02-06T11:51:41.014Z,102150.27
2019-02-06T11:53:42.387Z,102146.82
2019-02-06T11:55:43.826Z,102146.31
2019-02-06T11:57:45.398Z,102138.96
2019-02-06T11:59:46.729Z,102140.59
2019-02-06T12:01:49.263Z,102131.34
2019-02-06T12:03:50.643Z,102140.02
2019-02-06T12:05:51.981Z,102131.64
2019-02-06T12:07:53.342Z,102124.86
2019-02-06T12:09:54.694Z,102115.13
2019-02-06T12:11:56.031Z,102107.01
2019-02-06T12:13:57.463Z,102105.87
2019-02-06T12:15:58.811Z,102109.13
2019-02-06T12:18:00.202Z,102099.75
2019-02-06T12:20:05.236Z,102094.45
2019-02-06T12:22:06.622Z,102093.84
2019-02-06T12:24:08.459Z,102090.92
2019-02-06T12:26:09.801Z,102087.83
2019-02-06T12:28:11.241Z,102080.28
2019-02-06T12:30:30.360Z,102087.66
2019-02-06T12:32:31.762Z,102075.94
2019-02-06T12:34:33.556Z,102079.94
2019-02-06T12:36:34.943Z,102080.59
2019-02-06T12:38:36.384Z,102079.57
2019-02-06T12:40:37.915Z,102069.50
2019-02-06T12:42:39.893Z,102077.19
2019-02-06T12:44:41.369Z,102066.16
2019-02-06T12:46:42.708Z,102063.05
2019-02-06T12:48:44.039Z,102061.22
2019-02-06T12:50:45.417Z,102053.66
2019-02-06T12:52:47.255Z,102055.96
2019-02-06T12:54:48.644Z,102051.11
2019-02-06T12:56:49.988Z,102044.78
2019-02-06T12:58:51.313Z,102047.26
2019-02-06T13:00:52.698Z,102045.69
2019-02-06T13:02:56.460Z,102039.45
2019-02-06T13:04:57.357Z,102040.81
2019-02-06T13:07:00.203Z,102038.31
2019-02-06T13:09:03.940Z,102035.16
2019-02-06T13:11:05.491Z,102027.05
2019-02-06T13:13:06.898Z,102036.42
2019-02-06T13:15:12.900Z,102032.80
2019-02-06T13:17:14.313Z,102033.72
2019-02-06T13:19:15.740Z,102025.61
2019-02-06T13:21:17.111Z,102024.05
2019-02-06T13:23:18.476Z,102018.22
2019-02-06T13:25:19.857Z,102018.48
2019-02-06T13:27:21.253Z,102019.76
2019-02-06T13:29:22.610Z,102019.34
2019-02-06T13:31:23.993Z,102011.41
2019-02-06T13:33:25.341Z,102016.36
2019-02-06T13:35:26.789Z,102009.23
2019-02-06T13:37:28.186Z,102012.69
2019-02-06T13:39:29.556Z,102013.41
2019-02-06T13:41:30.897Z,102011.95
2019-02-06T13:43:32.302Z,102009.20
2019-02-06T13:45:38.857Z,102009.98
2019-02-06T13:47:40.197Z,102001.78
2019-02-06T13:49:41.626Z,102002.17
2019-02-06T13:51:42.997Z,101997.17
2019-02-06T13:53:44.345Z,101993.88
2019-02-06T13:55:45.755Z,101993.16
2019-02-06T13:57:47.228Z,101984.48
2019-02-06T13:59:48.586Z,101985.38
2019-02-06T14:01:50.001Z,101983.86
2019-02-06T14:03:51.353Z,101981.84
2019-02-06T14:05:52.811Z,101983.41
2019-02-06T14:07:57.940Z,101981.14
2019-02-06T14:09:59.292Z,101979.77
2019-02-06T14:12:00.781Z,101971.86
2019-02-06T14:14:02.385Z,101966.44
2019-02-06T14:16:05.560Z,101959.36
2019-02-06T14:18:07.240Z,101959.06
2019-02-06T14:20:14.014Z,101948.80
2019-02-06T14:22:15.427Z,101953.23
2019-02-06T14:24:22.484Z,101948.20
2019-02-06T14:26:36.065Z,101943.40
2019-02-06T14:29:16.301Z,101948.47
2019-02-06T14:31:51.058Z,101943.41
2019-02-06T14:34:06.612Z,101945.55
2019-02-06T14:36:51.705Z,101949.48
2019-02-06T14:39:20.428Z,101943.44
2019-02-06T14:42:02.957Z,101940.50
2019-02-06T14:44:40.175Z,101946.28
2019-02-06T14:46:59.067Z,101950.01
2019-02-06T14:49:09.048Z,101951.30
2019-02-06T14:51:22.233Z,101934.39
2019-02-06T14:53:53.709Z,101929.13
2019-02-06T14:56:21.465Z,101936.50
2019-02-06T14:58:46.069Z,101937.86
2019-02-06T15:00:59.846Z,101934.83
2019-02-06T15:03:39.489Z,101937.83
2019-02-06T15:06:10.777Z,101925.76
2019-02-06T15:08:39.069Z,101920.88
2019-02-06T15:11:01.655Z,101927.75
2019-02-06T15:13:31.144Z,101928.89
2019-02-06T15:16:16.371Z,101923.36
2019-02-06T15:18:32.368Z,101920.97
2019-02-06T15:21:01.589Z,101929.11
2019-02-06T15:23:36.486Z,101922.12
2019-02-06T15:25:58.577Z,101926.19
2019-02-06T15:28:37.716Z,101919.13
2019-02-06T15:31:08.735Z,101922.55
2019-02-06T15:33:53.412Z,101914.41
2019-02-06T15:36:15.095Z,101916.77
2019-02-06T15:38:43.032Z,101910.45
2019-02-06T15:40:56.597Z,101912.34
2019-02-06T15:43:15.669Z,101906.27
2019-02-06T15:45:48.901Z,101909.80
2019-02-06T15:48:14.182Z,101906.80
2019-02-06T15:50:39.440Z,101916.52
2019-02-06T15:52:58.064Z,101919.45
2019-02-06T15:55:23.050Z,101919.56
2019-02-06T15:57:54.308Z,101906.96
2019-02-06T16:00:01.402Z,101908.03
2019-02-06T16:02:23.264Z,101906.13
2019-02-06T16:05:10.442Z,101897.12
2019-02-06T16:07:50.043Z,101888.65
2019-02-06T16:10:28.624Z,101892.63
2019-02-06T16:12:59.540Z,101891.56
2019-02-06T16:15:15.302Z,101883.95
2019-02-06T16:18:07.988Z,101880.07
2019-02-06T16:20:24.118Z,101881.69
2019-02-06T16:23:01.619Z,101883.22
2019-02-06T16:25:37.810Z,101877.28
2019-02-06T16:27:47.746Z,101870.66
2019-02-06T16:30:06.937Z,101874.71
2019-02-06T16:32:40.894Z,101873.39
2019-02-06T16:35:19.494Z,101866.37
2019-02-06T16:37:38.411Z,101863.81
2019-02-06T16:40:00.544Z,101862.02
2019-02-06T16:42:40.090Z,101866.94
2019-02-06T16:45:01.578Z,101857.97
2019-02-06T16:47:29.843Z,101860.27
2019-02-06T16:49:48.583Z,101849.03
2019-02-06T16:52:01.788Z,101855.23
2019-02-06T16:54:26.656Z,101848.50
2019-02-06T16:57:08.606Z,101852.05
2019-02-06T16:59:30.322Z,101857.45
2019-02-06T17:02:06.070Z,101856.66
2019-02-06T17:04:37.394Z,101844.47
2019-02-06T17:06:53.664Z,101847.59
2019-02-06T17:09:17.175Z,101847.16
2019-02-06T17:11:35.883Z,101843.36
2019-02-06T17:13:54.703Z,101842.10
2019-02-06T17:16:10.805Z,101841.29
2019-02-06T17:18:42.225Z,101841.75
2019-02-06T17:21:10.033Z,101840.30
2019-02-06T17:23:17.089Z,101838.47
2019-02-06T17:25:36.179Z,101838.62
2019-02-06T17:28:08.877Z,101833.45
2019-02-06T17:30:42.989Z,101831.86
2019-02-06T17:33:05.158Z,101830.88
2019-02-06T17:35:27.576Z,101828.88
2019-02-06T17:37:49.724Z,101832.19
2019-02-06T17:40:12.197Z,101828.61
2019-02-06T17:42:28.018Z,101823.40
2019-02-06T17:44:57.681Z,101826.66
2019-02-06T17:47:10.374Z,101820.94
2019-02-06T17:49:22.789Z,101818.17
2019-02-06T17:51:49.455Z,101814.91
2019-02-06T17:54:02.520Z,101812.80
2019-02-06T17:56:04.282Z,101806.88
2019-02-06T17:58:05.896Z,101806.43
2019-02-06T18:00:15.803Z,101805.81
2019-02-06T18:02:17.177Z,101803.71
2019-02-06T18:04:18.582Z,101798.11
2019-02-06T18:06:19.961Z,101792.94
2019-02-06T18:08:21.394Z,101792.17
2019-02-06T18:10:22.871Z,101796.59
2019-02-06T18:12:27.406Z,101795.08
2019-02-06T18:14:27.562Z,101792.50
2019-02-06T18:16:29.079Z,101792.65
2019-02-06T18:18:30.458Z,101793.92
2019-02-06T18:20:32.038Z,101788.22
2019-02-06T18:22:33.849Z,101783.38
2019-02-06T18:24:35.407Z,101787.92
2019-02-06T18:26:41.391Z,101788.55
2019-02-06T18:28:42.802Z,101786.09
2019-02-06T18:30:44.656Z,101790.94
2019-02-06T18:32:46.008Z,101790.17
2019-02-06T18:34:47.441Z,101794.38
2019-02-06T18:36:48.971Z,101794.80
2019-02-06T18:38:51.220Z,101795.16
2019-02-06T18:40:52.638Z,101794.22
2019-02-06T18:42:54.653Z,101784.23
2019-02-06T18:44:56.008Z,101784.81
2019-02-06T18:46:59.538Z,101785.35
2019-02-06T18:49:00.888Z,101783.80
2019-02-06T18:51:03.157Z,101785.27
2019-02-06T18:53:06.582Z,101784.16
2019-02-06T18:55:08.544Z,101786.09
2019-02-06T18:57:09.901Z,101772.63
2019-02-06T18:59:11.532Z,101784.66
2019-02-06T19:01:13.001Z,101777.87
2019-02-06T19:03:26.816Z,101774.22
2019-02-06T19:05:33.409Z,101774.28
2019-02-06T19:07:34.872Z,101774.91
2019-02-06T19:09:36.430Z,101762.22
2019-02-06T19:11:38.068Z,101755.25
2019-02-06T19:13:39.532Z,101757.22
2019-02-06T19:15:41.146Z,101757.67
2019-02-06T19:17:42.604Z,101753.61
2019-02-06T19:19:45.051Z,101754.77
2019-02-06T19:21:46.602Z,101756.25
2019-02-06T19:23:47.961Z,101754.14
2019-02-06T19:25:49.317Z,101750.23
2019-02-06T19:27:51.133Z,101751.77
2019-02-06T19:29:52.606Z,101753.71
2019-02-06T19:31:54.028Z,101749.77
2019-02-06T19:33:55.400Z,101748.20
2019-02-06T19:35:57.082Z,101747.42
2019-02-06T19:37:58.671Z,101749.19
2019-02-06T19:40:00.887Z,101737.94
2019-02-06T19:42:02.321Z,101738.81
2019-02-06T19:44:03.993Z,101735.84
2019-02-06T19:46:05.545Z,101732.07
2019-02-06T19:48:15.628Z,101728.41
2019-02-06T19:50:26.613Z,101733.58
2019-02-06T19:52:28.038Z,101734.70
2019-02-06T19:54:29.899Z,101731.81
2019-02-06T19:56:31.464Z,101734.58
2019-02-06T19:58:32.845Z,101729.67
2019-02-06T20:00:35.087Z,101731.44
2019-02-06T20:02:36.853Z,101728.67
2019-02-06T20:04:38.226Z,101734.20
2019-02-06T20:06:39.740Z,101735.80
2019-02-06T20:08:41.114Z,101733.38
2019-02-06T20:10:49.246Z,101728.03
2019-02-06T20:12:51.069Z,101726.11
2019-02-06T20:14:55.363Z,101728.73
2019-02-06T20:16:55.855Z,101724.97
2019-02-06T20:18:59.336Z,101729.66
2019-02-06T20:21:08.682Z,101731.03
2019-02-06T20:23:10.058Z,101736.42
2019-02-06T20:25:11.914Z,101733.00
2019-02-06T20:27:13.354Z,101728.45
2019-02-06T20:29:14.706Z,101726.79
2019-02-06T20:31:17.207Z,101724.39
2019-02-06T20:33:18.625Z,101728.80
2019-02-06T20:35:20.083Z,101725.55
2019-02-06T20:37:21.529Z,101724.36
2019-02-06T20:39:23.007Z,101719.03
2019-02-06T20:41:24.593Z,101719.69
2019-02-06T20:43:25.949Z,101716.66
2019-02-06T20:45:27.483Z,101716.46
2019-02-06T20:47:28.842Z,101705.77
2019-02-06T20:49:30.205Z,101710.47
2019-02-06T20:51:31.626Z,101708.14
2019-02-06T20:53:32.984Z,101711.56
2019-02-06T20:55:34.436Z,101709.94
2019-02-06T20:57:35.846Z,101706.86
2019-02-06T20:59:37.207Z,101703.00
2019-02-06T21:01:38.748Z,101702.02
2019-02-06T21:03:40.116Z,101699.41
2019-02-06T21:05:41.469Z,101691.45
2019-02-06T21:07:42.882Z,101697.43
2019-02-06T21:09:44.235Z,101699.39
2019-02-06T21:11:45.592Z,101696.16
2019-02-06T21:13:47.402Z,101698.94
2019-02-06T21:15:48.813Z,101694.85
2019-02-06T21:17:50.165Z,101696.66
2019-02-06T21:19:51.581Z,101697.09
2019-02-06T21:21:52.959Z,101698.40
2019-02-06T21:23:54.345Z,101689.96
2019-02-06T21:25:55.773Z,101686.24
2019-02-06T21:27:57.126Z,101686.59
2019-02-06T21:29:58.513Z,101696.48
2019-02-06T21:31:59.946Z,101706.28
2019-02-06T21:34:05.896Z,101705.77
2019-02-06T21:36:06.662Z,101709.19
2019-02-06T21:38:08.095Z,101711.14
2019-02-06T21:40:23.839Z,101695.72
2019-02-06T21:42:25.222Z,101700.11
2019-02-06T21:44:26.968Z,101690.87
2019-02-06T21:46:28.385Z,101690.03
2019-02-06T21:48:29.776Z,101683.38
2019-02-06T21:50:31.237Z,101684.17
2019-02-06T21:52:32.706Z,101683.23
2019-02-06T21:54:34.222Z,101672.84
2019-02-06T21:56:36.365Z,101669.09
2019-02-06T21:58:37.737Z,101672.52
2019-02-06T22:00:41.493Z,101664.37
2019-02-06T22:02:43.092Z,101657.73
2019-02-06T22:04:44.466Z,101652.37
2019-02-06T22:06:45.815Z,101648.81
2019-02-06T22:08:47.232Z,101644.10
2019-02-06T22:10:48.995Z,101648.96
2019-02-06T22:12:50.555Z,101653.67
2019-02-06T22:14:52.488Z,101649.45
2019-02-06T22:16:53.888Z,101652.22
2019-02-06T22:18:55.353Z,101655.97
2019-02-06T22:20:56.766Z,101649.77
2019-02-06T22:22:58.315Z,101640.52
2019-02-06T22:24:59.777Z,101643.14
2019-02-06T22:27:04.219Z,101646.72
2019-02-06T22:29:05.584Z,101640.05
2019-02-06T22:31:06.959Z,101637.94
2019-02-06T22:33:08.536Z,101635.98
2019-02-06T22:35:12.087Z,101642.64
2019-02-06T22:37:13.571Z,101639.89
2019-02-06T22:39:15.002Z,101632.91
2019-02-06T22:41:16.418Z,101625.92
2019-02-06T22:43:17.771Z,101621.21
2019-02-06T22:45:25.822Z,101611.14
2019-02-06T22:47:27.188Z,101607.44
2019-02-06T22:49:28.564Z,101601.91
2019-02-06T22:51:29.999Z,101605.45
2019-02-06T22:53:31.455Z,101608.20
2019-02-06T22:55:32.896Z,101622.34
2019-02-06T22:57:34.296Z,101622.66
2019-02-06T22:59:35.654Z,101623.65
2019-02-06T23:01:37.810Z,101627.70
2019-02-06T23:03:39.749Z,101629.83
2019-02-06T23:05:41.095Z,101619.58
2019-02-06T23:07:42.469Z,101621.88
2019-02-06T23:09:43.885Z,101628.69
2019-02-06T23:11:45.259Z,101618.61
2019-02-06T23:13:46.732Z,101615.04
2019-02-06T23:15:48.131Z,101610.34
2019-02-06T23:17:49.632Z,101609.86
2019-02-06T23:19:50.981Z,101611.00
2019-02-06T23:21:52.349Z,101609.20
2019-02-06T23:23:53.742Z,101616.83
2019-02-06T23:25:55.095Z,101607.42
2019-02-06T23:27:56.826Z,101605.80
2019-02-06T23:29:58.582Z,101604.32
2019-02-06T23:31:59.934Z,101603.37
2019-02-06T23:34:01.339Z,101605.95
2019-02-06T23:36:03.625Z,101605.61
2019-02-06T23:38:05.572Z,101601.10
2019-02-06T23:40:13.595Z,101592.66
2019-02-06T23:42:15.021Z,101592.79
2019-02-06T23:44:16.440Z,101590.99
2019-02-06T23:46:17.800Z,101593.41